Time;durP1;ratioP1;P1;durP2;ratioP2;P2;SDS_P1;SDS_P2;PMS_P1;PMS_P2;Temp;Humidity;BMP_temperature;BMP_pressure;BME280_temperature;BME280_humidity;BME280_pressure;Samples;Min_cycle;Max_cycle;Signal;HPM_P1;HPM_P2
2023/04/08 00:01:17;;;;;;;6.82;4.93;;;4.20;99.90;;;;;;5040180;28;20049;-72
2023/04/08 00:03:42;;;;;;;8.35;4.78;;;4.20;99.90;;;;;;5038562;28;20049;-72
2023/04/08 00:06:08;;;;;;;7.05;4.78;;;4.10;99.90;;;;;;5056774;28;20087;-72
2023/04/08 00:08:34;;;;;;;7.38;4.97;;;4.10;99.90;;;;;;5017943;28;20599;-71
2023/04/08 00:11:01;;;;;;;7.50;4.35;;;4.10;99.90;;;;;;5037418;28;20041;-73
2023/04/08 00:13:27;;;;;;;7.43;4.85;;;4.10;99.90;;;;;;5022620;28;20045;-73
2023/04/08 00:15:53;;;;;;;5.65;4.00;;;4.10;99.90;;;;;;5036510;28;20052;-72
2023/04/08 00:18:22;;;;;;;8.80;4.60;;;4.40;99.90;;;;;;5034096;28;20080;-71
2023/04/08 00:20:48;;;;;;;7.15;4.93;;;4.00;99.90;;;;;;5020650;28;20144;-73
2023/04/08 00:23:13;;;;;;;7.70;4.32;;;4.00;99.90;;;;;;5004349;28;20140;-71
2023/04/08 00:25:45;;;;;;;6.28;4.55;;;4.00;99.90;;;;;;5005986;28;20044;-73
2023/04/08 00:28:17;;;;;;;5.70;4.35;;;4.20;99.90;;;;;;5051921;28;20063;-72
2023/04/08 00:30:46;;;;;;;5.95;4.07;;;4.00;99.90;;;;;;5034397;28;20045;-72
2023/04/08 00:33:12;;;;;;;7.60;4.47;;;3.90;99.90;;;;;;5004236;28;20044;-73
2023/04/08 00:35:38;;;;;;;6.32;4.18;;;3.90;99.90;;;;;;5051609;28;20055;-73
2023/04/08 00:38:06;;;;;;;7.60;4.70;;;3.90;99.90;;;;;;5038213;28;20045;-73
2023/04/08 00:40:33;;;;;;;5.97;4.20;;;3.80;99.90;;;;;;5038369;28;20586;-72
2023/04/08 00:42:59;;;;;;;6.95;4.45;;;3.80;99.90;;;;;;5047762;28;20053;-73
2023/04/08 00:45:25;;;;;;;6.65;4.80;;;3.80;99.90;;;;;;5029495;28;20076;-73
2023/04/08 00:47:51;;;;;;;6.35;4.38;;;3.80;99.90;;;;;;5028868;28;20136;-71
2023/04/08 00:50:20;;;;;;;6.10;4.30;;;3.80;99.90;;;;;;5028337;28;20049;-72
2023/04/08 00:52:46;;;;;;;6.65;4.80;;;3.80;99.90;;;;;;5031948;28;20499;-73
2023/04/08 00:55:15;;;;;;;7.20;4.40;;;3.80;99.90;;;;;;5029378;28;20088;-73
2023/04/08 00:57:41;;;;;;;6.72;4.43;;;2.60;99.90;;;;;;5029576;28;20762;-72
2023/04/08 01:00:09;;;;;;;6.32;4.32;;;3.70;99.90;;;;;;5015423;28;20048;-72
2023/04/08 01:02:48;;;;;;;6.57;4.00;;;3.70;99.90;;;;;;5046353;28;20045;-73
2023/04/08 01:05:46;;;;;;;6.00;4.13;;;3.60;99.90;;;;;;5017721;28;20041;-72
2023/04/08 01:08:18;;;;;;;7.47;4.55;;;3.70;99.90;;;;;;5016277;28;20550;-72
2023/04/08 01:10:50;;;;;;;6.97;4.53;;;3.60;99.90;;;;;;5047416;28;20577;-73
2023/04/08 01:13:19;;;;;;;6.07;4.20;;;3.60;99.90;;;;;;5028609;28;20049;-72
2023/04/08 01:15:55;;;;;;;7.70;4.72;;;3.60;99.90;;;;;;5032562;28;20055;-72
2023/04/08 01:18:27;;;;;;;7.97;4.88;;;3.60;99.90;;;;;;5025998;28;20069;-72
2023/04/08 01:20:54;;;;;;;7.82;4.82;;;3.60;99.90;;;;;;5027933;28;20151;-73
2023/04/08 01:23:44;;;;;;;5.70;4.35;;;3.60;99.90;;;;;;4999173;28;20049;-73
2023/04/08 01:26:20;;;;;;;7.63;4.85;;;3.90;99.90;;;;;;5016931;28;20058;-71
2023/04/08 01:28:49;;;;;;;6.13;4.57;;;3.50;99.90;;;;;;5024270;28;20041;-72
2023/04/08 01:31:16;;;;;;;7.10;4.90;;;3.50;99.90;;;;;;5042498;28;20041;-71
2023/04/08 01:33:44;;;;;;;7.85;5.53;;;3.40;99.90;;;;;;5031823;28;20083;-73
2023/04/08 01:36:10;;;;;;;6.82;4.75;;;3.40;99.90;;;;;;5026253;28;20048;-72
2023/04/08 01:38:37;;;;;;;8.00;5.28;;;3.60;99.90;;;;;;5000177;28;20040;-73
2023/04/08 01:41:04;;;;;;;8.73;5.80;;;3.40;99.90;;;;;;5011487;28;20146;-71
2023/04/08 01:43:40;;;;;;;7.25;5.53;;;3.40;99.90;;;;;;5030826;28;20049;-71
2023/04/08 01:46:13;;;;;;;9.05;5.30;;;3.40;99.90;;;;;;5016092;28;20053;-72
2023/04/08 01:48:45;;;;;;;8.05;5.68;;;3.30;99.90;;;;;;5043517;28;20403;-74
2023/04/08 01:51:11;;;;;;;9.70;5.65;;;3.30;99.90;;;;;;5030767;28;20056;-71
2023/04/08 01:53:37;;;;;;;8.15;5.90;;;3.30;99.90;;;;;;5013746;28;20061;-74
2023/04/08 01:56:12;;;;;;;9.93;6.43;;;3.80;99.90;;;;;;5014667;28;20056;-73
2023/04/08 01:58:49;;;;;;;9.85;5.93;;;3.30;99.90;;;;;;5030993;28;20040;-71
2023/04/08 02:01:19;;;;;;;10.77;6.30;;;3.30;99.90;;;;;;5029522;28;20123;-73
2023/04/08 02:03:50;;;;;;;10.38;6.68;;;3.20;99.90;;;;;;5020235;28;20302;-74
2023/04/08 02:06:16;;;;;;;9.38;6.50;;;3.20;99.90;;;;;;5020407;28;20103;-73
2023/04/08 02:08:42;;;;;;;10.23;7.05;;;3.20;99.90;;;;;;5050395;28;20071;-73
2023/04/08 02:11:09;;;;;;;11.02;6.57;;;3.20;99.90;;;;;;5051305;28;20048;-71
2023/04/08 02:13:35;;;;;;;10.93;6.88;;;3.10;99.90;;;;;;5014488;28;20061;-73
2023/04/08 02:16:22;;;;;;;10.88;7.65;;;3.20;99.90;;;;;;5031019;28;20160;-73
2023/04/08 02:18:57;;;;;;;11.38;7.68;;;3.30;99.90;;;;;;5051941;28;20126;-73
2023/04/08 02:21:35;;;;;;;9.88;7.07;;;3.10;99.90;;;;;;5014513;28;20079;-71
2023/04/08 02:24:08;;;;;;;13.60;7.90;;;3.10;99.90;;;;;;5033073;28;20053;-73
2023/04/08 02:26:42;;;;;;;10.77;7.38;;;3.10;99.90;;;;;;5045096;28;20052;-72
2023/04/08 02:29:12;;;;;;;11.35;7.90;;;4.30;99.90;;;;;;5014921;28;20148;-72
2023/04/08 02:31:40;;;;;;;12.73;8.48;;;3.60;99.90;;;;;;5028779;28;21480;-72
2023/04/08 02:34:10;;;;;;;10.52;7.72;;;3.20;99.90;;;;;;5030981;28;21384;-73
2023/04/08 02:36:39;;;;;;;11.27;8.30;;;3.00;99.90;;;;;;5031879;28;20052;-72
2023/04/08 02:39:06;;;;;;;10.48;7.55;;;3.00;99.90;;;;;;5012417;28;20049;-73
2023/04/08 02:41:31;;;;;;;12.48;8.00;;;3.70;99.90;;;;;;5020781;28;21277;-71
2023/04/08 02:43:57;;;;;;;12.13;7.90;;;3.10;99.90;;;;;;5047835;28;20055;-72
2023/04/08 02:46:30;;;;;;;12.40;8.75;;;2.90;99.90;;;;;;5033061;28;20110;-73
2023/04/08 02:48:56;;;;;;;12.98;8.13;;;2.90;99.90;;;;;;5002161;28;20059;-73
2023/04/08 02:51:22;;;;;;;12.55;8.10;;;3.20;99.90;;;;;;5045406;28;20045;-73
2023/04/08 02:53:47;;;;;;;11.40;8.60;;;2.90;99.90;;;;;;5016825;28;20045;-72
2023/04/08 02:56:13;;;;;;;14.75;8.57;;;2.80;99.90;;;;;;5018352;28;20049;-71
2023/04/08 02:58:39;;;;;;;11.50;8.18;;;2.80;99.90;;;;;;5030883;28;20053;-72
2023/04/08 03:01:05;;;;;;;13.20;8.18;;;3.20;99.90;;;;;;4997993;28;20075;-72
2023/04/08 03:03:34;;;;;;;13.40;8.93;;;2.80;99.90;;;;;;5046717;28;20049;-73
2023/04/08 03:06:00;;;;;;;13.95;9.05;;;2.70;99.90;;;;;;5032527;28;20056;-71
2023/04/08 03:08:26;;;;;;;12.07;8.48;;;2.70;99.90;;;;;;5002303;28;20045;-73
2023/04/08 03:10:52;;;;;;;13.25;8.73;;;2.70;99.90;;;;;;5032350;28;20098;-72
2023/04/08 03:13:18;;;;;;;13.55;8.45;;;2.60;99.90;;;;;;5028433;28;20388;-72
2023/04/08 03:15:43;;;;;;;13.68;9.77;;;3.30;99.90;;;;;;5014419;28;20049;-74
2023/04/08 03:18:10;;;;;;;14.15;9.02;;;2.70;99.90;;;;;;5030765;28;20569;-72
2023/04/08 03:20:36;;;;;;;13.63;9.23;;;2.60;99.90;;;;;;5030959;28;20488;-72
2023/04/08 03:23:02;;;;;;;15.48;9.32;;;2.70;99.90;;;;;;5034861;28;20052;-73
2023/04/08 03:25:28;;;;;;;14.13;9.35;;;2.60;99.90;;;;;;5015385;28;20518;-72
2023/04/08 03:28:00;;;;;;;14.55;9.52;;;3.60;99.90;;;;;;5028904;28;20052;-72
2023/04/08 03:30:25;;;;;;;13.73;9.30;;;2.60;99.90;;;;;;5019186;28;20212;-73
2023/04/08 03:32:57;;;;;;;15.32;9.70;;;2.60;99.90;;;;;;5031588;28;20049;-73
2023/04/08 03:35:29;;;;;;;12.55;8.95;;;4.40;99.90;;;;;;5030219;28;20064;-73
2023/04/08 03:37:55;;;;;;;15.30;9.98;;;2.60;99.90;;;;;;5045717;28;20053;-73
2023/04/08 03:40:21;;;;;;;15.63;9.98;;;2.60;99.90;;;;;;5015485;28;20061;-72
2023/04/08 03:42:47;;;;;;;15.63;10.43;;;2.60;99.90;;;;;;5015608;28;20450;-72
2023/04/08 03:45:14;;;;;;;14.90;10.52;;;2.60;99.90;;;;;;5000803;28;20060;-72
2023/04/08 03:47:40;;;;;;;15.50;10.43;;;2.20;99.90;;;;;;5030054;28;20487;-72
2023/04/08 03:50:09;;;;;;;15.02;10.40;;;4.00;99.90;;;;;;5016682;28;20033;-71
2023/04/08 03:52:35;;;;;;;14.75;10.32;;;2.50;99.90;;;;;;5013324;28;20050;-72
2023/04/08 03:55:01;;;;;;;16.70;11.10;;;2.80;99.90;;;;;;5015449;28;20052;-72
2023/04/08 03:57:29;;;;;;;17.13;10.90;;;2.70;99.90;;;;;;5015345;28;20793;-73
2023/04/08 03:59:55;;;;;;;14.25;10.27;;;2.80;99.90;;;;;;5031886;28;20084;-71
2023/04/08 04:02:23;;;;;;;16.05;10.00;;;2.50;99.90;;;;;;5015342;28;20178;-73
2023/04/08 04:04:49;;;;;;;15.38;10.98;;;2.50;99.90;;;;;;5029812;28;20053;-71
2023/04/08 04:07:15;;;;;;;14.95;10.35;;;2.50;99.90;;;;;;5015920;28;20506;-74
2023/04/08 04:09:41;;;;;;;17.40;11.77;;;2.40;99.90;;;;;;5016329;28;20043;-74
2023/04/08 04:12:07;;;;;;;17.33;10.95;;;2.40;99.90;;;;;;5031871;28;20443;-73
2023/04/08 04:14:33;;;;;;;16.83;11.10;;;2.40;99.90;;;;;;5011682;28;20048;-72
2023/04/08 04:16:58;;;;;;;16.80;10.93;;;3.30;99.90;;;;;;5027587;28;20458;-73
2023/04/08 04:19:24;;;;;;;18.98;11.93;;;2.40;99.90;;;;;;5017146;28;21903;-72
2023/04/08 04:21:50;;;;;;;16.88;11.68;;;2.40;99.90;;;;;;5043457;28;20045;-72
2023/04/08 04:24:20;;;;;;;18.85;11.80;;;2.40;99.90;;;;;;5028939;28;20122;-70
2023/04/08 04:26:46;;;;;;;19.67;12.30;;;3.10;99.90;;;;;;5014354;28;20049;-71
2023/04/08 04:29:13;;;;;;;19.30;12.07;;;2.10;99.90;;;;;;5015084;28;20578;-74
2023/04/08 04:31:38;;;;;;;16.23;11.05;;;2.40;99.90;;;;;;5011554;28;20052;-72
2023/04/08 04:34:04;;;;;;;23.15;12.52;;;3.10;99.90;;;;;;5013944;28;20065;-73
2023/04/08 04:36:31;;;;;;;16.65;11.82;;;2.40;99.90;;;;;;5030010;28;20045;-71
2023/04/08 04:38:58;;;;;;;19.75;12.88;;;2.30;99.90;;;;;;5030398;28;20159;-72
2023/04/08 04:41:24;;;;;;;17.80;12.02;;;2.40;99.90;;;;;;5027342;28;20056;-73
2023/04/08 04:43:50;;;;;;;19.70;12.43;;;2.50;99.90;;;;;;4997508;28;20049;-72
2023/04/08 04:46:19;;;;;;;19.63;13.73;;;2.30;99.90;;;;;;5030504;28;20041;-73
2023/04/08 04:48:45;;;;;;;19.83;13.93;;;2.30;99.90;;;;;;5014948;28;21683;-72
2023/04/08 04:51:15;;;;;;;18.20;13.20;;;2.30;99.90;;;;;;5033014;28;20373;-73
2023/04/08 04:53:41;;;;;;;18.50;12.30;;;2.30;99.90;;;;;;5035215;28;20045;-71
2023/04/08 04:56:07;;;;;;;18.67;12.30;;;3.30;99.90;;;;;;5017444;28;20222;-72
2023/04/08 04:58:33;;;;;;;18.52;12.60;;;2.30;99.90;;;;;;5035930;28;20110;-72
2023/04/08 05:00:59;;;;;;;19.63;12.88;;;2.30;99.90;;;;;;5032393;28;20057;-71
2023/04/08 05:03:26;;;;;;;18.95;12.90;;;2.30;99.90;;;;;;5030847;28;20095;-71
2023/04/08 05:05:53;;;;;;;19.17;12.85;;;2.30;99.90;;;;;;5017149;28;20107;-72
2023/04/08 05:08:20;;;;;;;20.98;13.50;;;1.30;99.90;;;;;;5029792;28;20441;-74
2023/04/08 05:10:46;;;;;;;21.05;13.30;;;2.30;99.90;;;;;;5027789;28;21328;-73
2023/04/08 05:13:11;;;;;;;21.48;12.93;;;2.30;99.90;;;;;;5029340;28;20407;-74
2023/04/08 05:15:37;;;;;;;23.90;14.65;;;2.30;99.90;;;;;;5034363;28;20496;-74
2023/04/08 05:18:03;;;;;;;24.02;13.55;;;2.50;99.90;;;;;;5015778;28;20064;-72
2023/04/08 05:20:34;;;;;;;20.75;14.95;;;2.60;99.90;;;;;;5031922;28;20057;-72
2023/04/08 05:23:00;;;;;;;22.02;14.02;;;2.30;99.90;;;;;;5032004;28;20091;-73
2023/04/08 05:25:26;;;;;;;21.73;14.80;;;2.30;99.90;;;;;;5003858;28;20117;-72
2023/04/08 05:27:52;;;;;;;21.40;14.10;;;2.80;99.90;;;;;;5017427;28;20041;-72
2023/04/08 05:30:18;;;;;;;23.15;13.90;;;2.30;99.90;;;;;;5031952;28;20083;-76
2023/04/08 05:32:44;;;;;;;19.17;13.85;;;4.00;99.90;;;;;;5035153;28;20056;-75
2023/04/08 05:35:10;;;;;;;23.48;14.65;;;4.00;99.90;;;;;;5035766;28;20049;-74
2023/04/08 05:37:35;;;;;;;26.35;14.95;;;3.80;99.90;;;;;;5037993;28;20399;-74
2023/04/08 05:40:01;;;;;;;23.50;14.98;;;2.40;99.90;;;;;;5008851;28;20043;-75
2023/04/08 05:42:27;;;;;;;27.40;16.38;;;3.70;99.90;;;;;;5043023;28;20080;-76
2023/04/08 05:44:54;;;;;;;23.77;15.02;;;2.40;99.90;;;;;;5059286;28;20040;-73
2023/04/08 05:47:20;;;;;;;24.25;15.32;;;2.40;99.90;;;;;;5040558;28;20418;-75
2023/04/08 05:49:50;;;;;;;24.23;15.38;;;2.50;99.90;;;;;;5027283;28;20045;-74
2023/04/08 05:52:16;;;;;;;25.95;16.08;;;3.50;99.90;;;;;;5055024;28;20156;-75
2023/04/08 05:54:42;;;;;;;22.98;16.10;;;2.50;99.90;;;;;;5039613;28;20120;-73
2023/04/08 05:57:08;;;;;;;23.90;15.25;;;2.60;99.90;;;;;;5044121;28;20056;-73
2023/04/08 05:59:34;;;;;;;26.00;16.77;;;3.10;99.90;;;;;;5040065;28;20055;-71
2023/04/08 06:02:06;;;;;;;24.92;15.73;;;2.70;99.90;;;;;;5038218;28;20521;-72
2023/04/08 06:04:32;;;;;;;23.05;15.32;;;2.70;99.90;;;;;;5022518;28;20047;-73
2023/04/08 06:06:59;;;;;;;25.05;15.68;;;2.70;99.90;;;;;;5024519;28;20057;-71
2023/04/08 06:09:25;;;;;;;23.58;16.33;;;2.70;99.90;;;;;;5038112;28;20052;-74
2023/04/08 06:11:51;;;;;;;23.15;15.27;;;2.80;99.90;;;;;;5023320;28;21142;-75
2023/04/08 06:14:17;;;;;;;24.02;15.82;;;2.80;99.90;;;;;;5024723;28;20451;-72
2023/04/08 06:16:48;;;;;;;24.05;15.60;;;2.90;99.90;;;;;;5028547;28;20382;-71
2023/04/08 06:19:15;;;;;;;28.25;16.40;;;2.90;99.90;;;;;;5019089;28;20053;-74
2023/04/08 06:21:41;;;;;;;27.38;16.67;;;3.60;99.90;;;;;;5040574;28;20040;-74
2023/04/08 06:24:07;;;;;;;29.23;17.63;;;2.10;99.90;;;;;;5056061;28;20075;-75
2023/04/08 06:26:33;;;;;;;24.13;16.55;;;3.60;99.90;;;;;;5024445;28;20068;-75
2023/04/08 06:28:59;;;;;;;26.17;16.60;;;3.30;99.90;;;;;;5041508;28;20450;-72
2023/04/08 06:31:25;;;;;;;28.13;18.38;;;3.30;99.90;;;;;;5016604;28;20052;-78
2023/04/08 06:33:51;;;;;;;29.02;18.50;;;3.30;99.90;;;;;;5037467;28;20064;-74
2023/04/08 06:36:18;;;;;;;29.48;18.40;;;3.40;99.90;;;;;;5039125;28;20053;-73
2023/04/08 06:38:44;;;;;;;29.40;17.48;;;3.40;99.90;;;;;;5034993;28;20106;-73
2023/04/08 06:41:10;;;;;;;32.83;21.35;;;4.30;99.90;;;;;;5040187;28;20048;-73
2023/04/08 06:43:36;;;;;;;30.48;18.98;;;3.60;99.90;;;;;;5037870;28;20240;-73
2023/04/08 06:46:02;;;;;;;31.73;19.58;;;3.70;99.90;;;;;;5038705;28;20072;-73
2023/04/08 06:48:29;;;;;;;38.45;21.50;;;3.80;99.90;;;;;;5011499;28;20048;-71
2023/04/08 06:50:59;;;;;;;31.40;19.33;;;4.20;99.90;;;;;;5041086;28;20053;-72
2023/04/08 06:53:28;;;;;;;36.28;21.80;;;4.80;99.90;;;;;;5056214;28;20178;-72
2023/04/08 06:56:00;;;;;;;32.95;20.52;;;4.20;99.90;;;;;;5040039;28;20049;-72
2023/04/08 06:58:26;;;;;;;34.40;19.90;;;4.40;99.90;;;;;;5041018;28;20442;-72
2023/04/08 07:00:55;;;;;;;30.85;19.80;;;3.40;99.90;;;;;;5025138;28;20135;-72
2023/04/08 07:03:28;;;;;;;32.08;19.55;;;4.70;99.90;;;;;;5054050;28;20145;-75
2023/04/08 07:05:55;;;;;;;31.80;21.25;;;4.80;99.90;;;;;;5023460;28;20057;-72
2023/04/08 07:08:20;;;;;;;31.13;19.33;;;5.00;99.90;;;;;;5023140;28;20148;-73
2023/04/08 07:10:48;;;;;;;38.38;20.92;;;5.10;99.90;;;;;;5040578;28;20578;-73
2023/04/08 07:13:13;;;;;;;31.55;20.42;;;5.20;99.90;;;;;;5026766;28;20202;-73
2023/04/08 07:15:40;;;;;;;32.47;19.58;;;5.40;99.90;;;;;;5012188;28;20040;-73
2023/04/08 07:18:06;;;;;;;31.42;19.45;;;5.60;99.90;;;;;;5037769;28;20068;-72
2023/04/08 07:20:37;;;;;;;31.80;19.92;;;5.70;99.90;;;;;;5055677;28;20045;-73
2023/04/08 07:23:03;;;;;;;31.13;19.85;;;5.70;99.90;;;;;;5022080;28;20073;-72
2023/04/08 07:25:29;;;;;;;28.13;18.70;;;5.80;99.90;;;;;;5054994;28;20041;-72
2023/04/08 07:27:55;;;;;;;28.75;19.42;;;5.80;99.90;;;;;;5037783;28;20099;-72
2023/04/08 07:30:21;;;;;;;24.92;17.20;;;5.90;99.90;;;;;;5038251;28;20052;-72
2023/04/08 07:32:48;;;;;;;28.10;17.63;;;6.00;99.90;;;;;;5028268;28;20069;-73
2023/04/08 07:35:17;;;;;;;27.25;18.50;;;6.00;99.90;;;;;;5021098;28;20048;-73
2023/04/08 07:37:43;;;;;;;25.75;17.10;;;6.00;99.90;;;;;;5039964;28;20059;-72
2023/04/08 07:40:09;;;;;;;27.45;17.40;;;6.10;99.90;;;;;;5006172;28;20041;-73
2023/04/08 07:42:40;;;;;;;26.08;17.17;;;6.10;99.90;;;;;;5021190;28;20438;-72
2023/04/08 07:45:07;;;;;;;23.48;16.17;;;6.20;99.90;;;;;;5008187;28;20049;-73
2023/04/08 07:47:33;;;;;;;23.45;16.00;;;6.20;99.90;;;;;;5020149;28;20047;-74
2023/04/08 07:49:58;;;;;;;21.90;15.80;;;6.30;99.90;;;;;;5000703;28;20052;-73
2023/04/08 07:52:25;;;;;;;23.90;16.02;;;6.40;99.90;;;;;;5035339;28;20491;-74
2023/04/08 07:54:50;;;;;;;28.30;17.25;;;6.50;99.90;;;;;;5036753;28;20052;-73
2023/04/08 07:57:22;;;;;;;25.65;17.38;;;6.80;99.90;;;;;;5050886;28;20075;-73
2023/04/08 07:59:48;;;;;;;23.95;15.90;;;7.10;99.90;;;;;;5002099;28;20147;-73
2023/04/08 08:02:18;;;;;;;25.73;17.23;;;7.20;99.90;;;;;;5032260;28;20053;-73
2023/04/08 08:04:44;;;;;;;26.23;16.75;;;7.50;99.90;;;;;;5018232;28;20096;-73
2023/04/08 08:07:09;;;;;;;22.85;16.92;;;7.60;99.90;;;;;;5025937;28;20107;-72
2023/04/08 08:09:35;;;;;;;23.00;15.68;;;7.70;99.90;;;;;;5023736;28;20044;-71
2023/04/08 08:12:01;;;;;;;22.63;16.20;;;7.90;99.90;;;;;;5027120;28;20416;-74
2023/04/08 08:14:28;;;;;;;21.88;15.13;;;8.00;99.90;;;;;;5020775;28;20136;-73
2023/04/08 08:16:55;;;;;;;21.55;15.77;;;8.10;99.90;;;;;;5040898;28;20106;-73
2023/04/08 08:19:21;;;;;;;20.00;14.77;;;8.60;99.90;;;;;;5022092;28;20511;-72
2023/04/08 08:21:51;;;;;;;19.45;14.98;;;8.30;99.90;;;;;;5041831;28;20056;-72
2023/04/08 08:24:16;;;;;;;21.85;16.13;;;8.50;99.90;;;;;;5040423;28;20049;-73
2023/04/08 08:26:44;;;;;;;18.92;13.90;;;8.80;99.90;;;;;;5025665;28;20037;-73
2023/04/08 08:29:10;;;;;;;19.92;14.55;;;8.90;99.90;;;;;;5038636;28;20523;-76
2023/04/08 08:31:36;;;;;;;18.45;13.38;;;9.00;99.90;;;;;;5040857;28;20041;-74
2023/04/08 08:34:02;;;;;;;17.65;12.32;;;9.10;99.90;;;;;;5024362;28;20044;-70
2023/04/08 08:36:28;;;;;;;16.80;12.55;;;9.00;99.90;;;;;;5035633;28;20056;-74
2023/04/08 08:38:57;;;;;;;19.00;13.65;;;9.10;99.90;;;;;;5022739;28;20060;-74
2023/04/08 08:41:23;;;;;;;18.50;14.02;;;9.10;99.90;;;;;;5040260;28;20107;-75
2023/04/08 08:43:49;;;;;;;18.33;13.65;;;9.20;99.90;;;;;;5034736;28;20057;-74
2023/04/08 08:46:17;;;;;;;19.73;13.07;;;9.30;99.90;;;;;;5018784;28;20053;-73
2023/04/08 08:48:44;;;;;;;17.58;14.38;;;9.40;99.90;;;;;;5033516;28;21769;-75
2023/04/08 08:51:11;;;;;;;16.05;12.30;;;9.60;99.90;;;;;;5034936;28;20510;-71
2023/04/08 08:53:44;;;;;;;16.02;12.73;;;9.80;99.90;;;;;;5050894;28;20136;-73
2023/04/08 08:56:11;;;;;;;13.88;11.00;;;9.80;99.90;;;;;;5004085;28;20098;-73
2023/04/08 08:58:38;;;;;;;21.90;11.90;;;9.80;99.90;;;;;;5047625;28;20045;-72
2023/04/08 09:01:40;;;;;;;16.52;11.55;;;9.90;99.90;;;;;;5018750;28;20045;-73
2023/04/08 09:04:21;;;;;;;16.95;10.80;;;9.90;99.90;;;;;;5020218;28;20037;-76
2023/04/08 09:07:10;;;;;;;13.60;10.18;;;10.00;99.90;;;;;;5035668;28;20061;-73
2023/04/08 09:09:51;;;;;;;12.70;9.65;;;10.10;99.90;;;;;;5036776;28;20045;-74
2023/04/08 09:12:26;;;;;;;13.13;10.00;;;10.20;99.90;;;;;;5034364;28;20442;-76
2023/04/08 09:15:05;;;;;;;15.68;10.23;;;10.30;99.90;;;;;;5051826;28;20048;-72
2023/04/08 09:17:42;;;;;;;13.55;9.90;;;10.40;99.90;;;;;;5033928;28;20106;-73
2023/04/08 09:20:14;;;;;;;12.32;9.88;;;10.50;99.90;;;;;;5023147;28;20055;-72
2023/04/08 09:22:58;;;;;;;11.68;9.48;;;10.60;99.90;;;;;;5007519;28;20040;-72
2023/04/08 09:25:25;;;;;;;10.80;9.25;;;10.80;99.90;;;;;;5038087;28;20660;-72
2023/04/08 09:27:52;;;;;;;11.35;8.43;;;11.00;99.90;;;;;;5051964;28;20053;-72
2023/04/08 09:30:19;;;;;;;11.38;8.77;;;11.20;99.90;;;;;;5037965;28;20916;-72
2023/04/08 09:32:55;;;;;;;11.88;9.07;;;11.40;99.90;;;;;;5005588;28;20048;-73
2023/04/08 09:35:30;;;;;;;11.70;8.03;;;11.60;99.90;;;;;;5050964;28;20049;-74
2023/04/08 09:37:56;;;;;;;14.40;8.63;;;12.00;99.90;;;;;;5016440;28;20311;-73
2023/04/08 09:40:25;;;;;;;10.65;7.38;;;12.10;99.90;;;;;;5039240;28;20041;-73
2023/04/08 09:42:53;;;;;;;9.80;7.47;;;12.10;99.90;;;;;;5038001;28;20111;-70
2023/04/08 09:45:19;;;;;;;10.30;8.07;;;12.30;99.90;;;;;;5036545;28;20510;-72
2023/04/08 09:48:08;;;;;;;10.25;7.22;;;12.70;99.90;;;;;;5055607;28;20057;-73
2023/04/08 09:50:41;;;;;;;9.00;6.68;;;13.30;99.90;;;;;;5025330;28;20047;-74
2023/04/08 09:53:18;;;;;;;9.07;7.20;;;13.50;99.90;;;;;;5055512;28;20049;-74
2023/04/08 09:55:54;;;;;;;8.95;7.55;;;13.70;99.90;;;;;;5047799;28;20053;-74
2023/04/08 09:58:41;;;;;;;9.82;6.55;;;13.80;99.90;;;;;;5058246;28;20049;-75
2023/04/08 10:01:13;;;;;;;10.57;7.45;;;13.70;99.90;;;;;;5038567;28;20047;-74
2023/04/08 10:03:53;;;;;;;9.70;7.32;;;14.00;99.90;;;;;;5035485;28;20045;-75
2023/04/08 10:06:26;;;;;;;9.40;7.28;;;14.30;99.90;;;;;;5042509;28;20045;-75
2023/04/08 10:08:53;;;;;;;11.13;7.13;;;14.70;99.90;;;;;;5023922;28;20045;-75
2023/04/08 10:11:21;;;;;;;9.85;7.40;;;14.60;99.90;;;;;;5038306;28;20049;-74
2023/04/08 10:13:47;;;;;;;9.60;7.53;;;14.60;99.90;;;;;;5037430;28;20060;-73
2023/04/08 10:16:26;;;;;;;9.43;7.53;;;14.60;99.90;;;;;;5020902;28;20057;-75
2023/04/08 10:18:57;;;;;;;9.55;7.50;;;14.60;99.90;;;;;;5029733;28;20072;-72
2023/04/08 10:21:49;;;;;;;9.88;7.18;;;14.90;99.90;;;;;;5032452;28;20449;-72
2023/04/08 10:24:14;;;;;;;8.38;6.93;;;15.10;99.90;;;;;;5040607;28;20167;-72
2023/04/08 10:26:42;;;;;;;9.82;7.28;;;15.10;99.90;;;;;;5024275;28;20057;-72
2023/04/08 10:29:29;;;;;;;9.63;7.30;;;15.00;99.90;;;;;;5010177;28;20082;-73
2023/04/08 10:31:56;;;;;;;10.23;7.00;;;14.80;99.90;;;;;;5040088;28;20049;-71
2023/04/08 10:34:26;;;;;;;10.30;8.20;;;14.70;99.90;;;;;;5040600;28;20059;-72
2023/04/08 10:36:54;;;;;;;9.95;6.97;;;14.50;99.90;;;;;;5041157;28;20236;-73
2023/04/08 10:39:21;;;;;;;10.50;7.63;;;14.40;99.90;;;;;;5042103;28;20136;-72
2023/04/08 10:41:50;;;;;;;9.40;7.63;;;14.30;99.90;;;;;;5037297;28;20564;-73
2023/04/08 10:44:23;;;;;;;9.20;7.47;;;14.10;99.90;;;;;;5058989;28;20846;-72
2023/04/08 10:46:50;;;;;;;8.05;7.13;;;14.00;99.90;;;;;;5042055;28;20045;-71
2023/04/08 10:49:17;;;;;;;8.60;7.70;;;13.90;99.90;;;;;;5057632;28;20064;-70
2023/04/08 10:51:45;;;;;;;8.60;7.40;;;13.70;99.90;;;;;;5040193;28;20511;-72
2023/04/08 10:54:15;;;;;;;10.32;7.60;;;13.50;99.90;;;;;;5039579;28;20057;-71
2023/04/08 10:56:48;;;;;;;10.05;8.18;;;13.40;99.90;;;;;;5042431;28;20041;-73
2023/04/08 10:59:16;;;;;;;10.20;8.30;;;13.30;99.90;;;;;;5039336;28;20451;-71
2023/04/08 11:01:46;;;;;;;10.27;7.72;;;13.10;99.90;;;;;;5058835;28;20102;-72
2023/04/08 11:04:13;;;;;;;9.82;8.27;;;12.90;99.90;;;;;;5008998;28;20258;-71
2023/04/08 11:06:41;;;;;;;9.82;7.30;;;12.80;99.90;;;;;;5037332;28;20494;-72
2023/04/08 11:09:07;;;;;;;9.50;7.57;;;12.70;99.90;;;;;;5039686;28;20198;-71
2023/04/08 11:11:33;;;;;;;10.88;7.50;;;12.50;99.90;;;;;;5027773;28;20076;-76
2023/04/08 11:14:00;;;;;;;8.95;7.30;;;12.40;99.90;;;;;;5044352;28;20053;-78
2023/04/08 11:16:28;;;;;;;8.50;7.57;;;12.40;99.90;;;;;;5040301;28;20044;-74
2023/04/08 11:18:55;;;;;;;8.75;6.78;;;12.40;99.90;;;;;;5040317;28;20057;-72
2023/04/08 11:21:28;;;;;;;9.75;7.60;;;12.40;99.90;;;;;;5021801;28;20041;-70
2023/04/08 11:23:54;;;;;;;10.38;7.80;;;12.40;99.90;;;;;;5019876;28;20059;-71
2023/04/08 11:26:21;;;;;;;9.98;7.80;;;12.30;99.90;;;;;;5036748;28;20045;-71
2023/04/08 11:28:51;;;;;;;9.60;7.47;;;12.30;99.90;;;;;;5039507;28;20067;-71
2023/04/08 11:31:18;;;;;;;9.30;7.85;;;12.20;99.90;;;;;;5031538;28;20080;-71
2023/04/08 11:33:48;;;;;;;9.02;7.97;;;12.20;99.90;;;;;;5063873;28;20373;-71
2023/04/08 11:36:16;;;;;;;9.40;7.85;;;12.20;99.90;;;;;;5046056;28;20080;-71
2023/04/08 11:38:43;;;;;;;14.43;8.68;;;12.10;99.90;;;;;;5061134;28;20526;-72
2023/04/08 11:41:10;;;;;;;12.30;7.93;;;12.00;99.90;;;;;;5045199;28;20053;-71
2023/04/08 11:43:37;;;;;;;12.10;8.85;;;11.90;99.90;;;;;;5043339;28;20041;-73
2023/04/08 11:46:12;;;;;;;11.27;8.05;;;11.90;99.90;;;;;;5045745;28;20052;-70
2023/04/08 11:48:38;;;;;;;11.40;8.70;;;11.90;99.90;;;;;;5026106;28;20059;-71
2023/04/08 11:51:09;;;;;;;10.80;8.63;;;11.80;99.90;;;;;;5062116;28;20415;-73
2023/04/08 11:53:36;;;;;;;10.95;8.10;;;11.80;99.90;;;;;;5031233;28;20081;-70
2023/04/08 11:56:21;;;;;;;11.50;8.48;;;11.70;99.90;;;;;;5046094;28;20080;-71
2023/04/08 11:58:47;;;;;;;10.25;8.32;;;11.70;99.90;;;;;;5010465;28;20056;-71
2023/04/08 12:01:13;;;;;;;10.90;8.23;;;11.60;99.90;;;;;;5029912;28;20055;-70
2023/04/08 12:04:01;;;;;;;9.73;7.90;;;11.50;99.90;;;;;;5031212;28;20051;-72
2023/04/08 12:06:28;;;;;;;10.98;8.55;;;11.50;99.90;;;;;;5040614;28;20053;-71
2023/04/08 12:08:55;;;;;;;11.73;8.70;;;11.40;99.90;;;;;;5046253;28;20040;-71
2023/04/08 12:11:23;;;;;;;11.55;8.82;;;11.30;99.90;;;;;;5022419;28;20466;-70
2023/04/08 12:13:49;;;;;;;11.07;8.63;;;11.30;99.90;;;;;;5061098;28;20053;-69
2023/04/08 12:16:15;;;;;;;12.25;8.80;;;11.30;99.90;;;;;;5039190;28;20048;-72
2023/04/08 12:18:41;;;;;;;10.20;8.52;;;11.30;99.90;;;;;;5030899;28;20057;-72
2023/04/08 12:21:07;;;;;;;12.23;9.43;;;11.20;99.90;;;;;;5030107;28;20044;-71
2023/04/08 12:23:33;;;;;;;12.48;9.02;;;11.20;99.90;;;;;;5063830;28;20518;-71
2023/04/08 12:26:01;;;;;;;11.65;9.10;;;11.20;99.90;;;;;;5064973;28;20057;-71
2023/04/08 12:28:26;;;;;;;12.30;8.25;;;11.20;99.90;;;;;;5046846;28;20053;-71
2023/04/08 12:30:52;;;;;;;11.77;8.40;;;11.20;99.90;;;;;;5026979;28;20039;-71
2023/04/08 12:33:18;;;;;;;11.80;8.82;;;11.10;99.90;;;;;;5062142;28;20045;-71
2023/04/08 12:35:46;;;;;;;12.13;9.13;;;11.20;99.90;;;;;;5030549;28;20635;-71
2023/04/08 12:38:12;;;;;;;12.20;8.65;;;11.10;99.90;;;;;;5045861;28;20045;-71
2023/04/08 12:40:38;;;;;;;11.40;8.82;;;11.50;99.90;;;;;;5045504;28;20041;-71
2023/04/08 12:43:07;;;;;;;12.18;9.18;;;11.20;99.90;;;;;;5042410;28;20495;-71
2023/04/08 12:45:33;;;;;;;12.38;8.55;;;11.20;99.90;;;;;;5031013;28;20086;-71
2023/04/08 12:47:58;;;;;;;15.07;9.52;;;11.30;99.90;;;;;;5029467;28;20484;-71
2023/04/08 12:50:26;;;;;;;15.65;9.70;;;11.30;99.90;;;;;;5040845;28;20391;-72